Terminal Aerodrome Forecast
Issued by NWS

Home | Current Version | Previous Version | Text Only | Print | Product List | Glossary On
Versions: 1 2 3 4 5 6 7 8 9 10 11 12 13 14
000
FTUS43 KDMX 302337
TAFFOD
TAF
KFOD 302337Z 3100/3124 16010KT P6SM VCTS SCT035CB BKN120
      TEMPO 3100/3104 VRB25G40KT 3SM -TSRA OVC030CB
     FM310400 16007KT P6SM SCT050 BKN120
     FM310800 19007KT P6SM VCSH BKN050
     FM311600 24007KT P6SM VCTS OVC028CB=

USA.gov is the U.S. government's official web portal to all federal, state and local government web resources and services.